createdAt,value
2023-02-23T00:00:27.262Z,10.10
2023-02-23T00:01:27.254Z,9.70
2023-02-23T00:02:27.304Z,10.00
2023-02-23T00:03:27.273Z,9.60
2023-02-23T00:04:27.219Z,9.40
2023-02-23T00:05:27.197Z,10.20
2023-02-23T00:06:27.209Z,10.90
2023-02-23T00:07:27.183Z,10.60
2023-02-23T00:08:27.168Z,11.00
2023-02-23T00:09:27.150Z,9.80
2023-02-23T00:10:27.151Z,9.70
2023-02-23T00:11:27.300Z,10.00
2023-02-23T00:12:27.118Z,10.00
2023-02-23T00:13:27.112Z,9.80
2023-02-23T00:14:27.108Z,11.30
2023-02-23T00:15:27.100Z,9.80
2023-02-23T00:16:27.131Z,11.20
2023-02-23T00:17:27.067Z,10.30
2023-02-23T00:18:27.093Z,11.00
2023-02-23T00:19:27.044Z,11.40
2023-02-23T00:20:27.037Z,11.10
2023-02-23T00:21:27.039Z,11.30
2023-02-23T00:22:27.010Z,10.50
2023-02-23T00:23:26.994Z,10.50
2023-02-23T00:24:27.139Z,10.70
2023-02-23T00:25:26.979Z,11.20
2023-02-23T00:26:26.966Z,11.30
2023-02-23T00:27:26.997Z,10.60
2023-02-23T00:28:26.957Z,10.70
2023-02-23T00:29:26.928Z,10.50
2023-02-23T00:30:27.662Z,10.20
2023-02-23T00:31:26.960Z,10.80
2023-02-23T00:32:27.037Z,10.80
2023-02-23T00:33:26.903Z,10.50
2023-02-23T00:34:26.899Z,11.30
2023-02-23T00:35:26.868Z,10.40
2023-02-23T00:36:26.869Z,10.00
2023-02-23T00:37:26.845Z,10.50
2023-02-23T00:38:26.835Z,9.80
2023-02-23T00:39:26.904Z,11.00
2023-02-23T00:40:26.836Z,11.20
2023-02-23T00:41:26.816Z,11.10
2023-02-23T00:42:26.791Z,10.40
2023-02-23T00:43:26.805Z,10.70
2023-02-23T00:44:26.807Z,9.90
2023-02-23T00:45:26.763Z,11.30
2023-02-23T00:46:26.749Z,11.40
2023-02-23T00:47:26.747Z,9.70
2023-02-23T00:48:26.739Z,8.90
2023-02-23T00:49:26.728Z,10.80
2023-02-23T00:50:26.724Z,10.30
2023-02-23T00:51:26.693Z,9.20
2023-02-23T00:52:26.705Z,10.00
2023-02-23T00:53:26.670Z,9.50
2023-02-23T00:54:26.663Z,10.10
2023-02-23T00:55:26.644Z,10.00
2023-02-23T00:56:26.638Z,10.40
2023-02-23T00:57:26.636Z,10.20
2023-02-23T00:58:26.640Z,10.50
2023-02-23T00:59:26.626Z,10.00
2023-02-23T01:00:26.622Z,10.20
2023-02-23T01:01:26.695Z,8.90
2023-02-23T01:02:26.602Z,7.40
2023-02-23T01:03:26.579Z,9.90
2023-02-23T01:04:26.573Z,9.70
2023-02-23T01:05:26.534Z,9.00
2023-02-23T01:06:26.548Z,9.70
2023-02-23T01:07:26.530Z,8.40
2023-02-23T01:08:26.500Z,9.60
2023-02-23T01:09:26.501Z,9.30
2023-02-23T01:10:26.490Z,9.20
2023-02-23T01:11:26.462Z,9.40
2023-02-23T01:12:26.467Z,10.50
2023-02-23T01:13:26.453Z,10.10
2023-02-23T01:14:26.456Z,10.70
2023-02-23T01:15:26.505Z,10.60
2023-02-23T01:16:26.413Z,9.20
2023-02-23T01:17:26.408Z,9.50
2023-02-23T01:18:26.398Z,11.00
2023-02-23T01:19:26.390Z,10.30
2023-02-23T01:20:27.470Z,9.70
2023-02-23T01:21:26.363Z,10.50
2023-02-23T01:22:26.365Z,9.80
2023-02-23T01:23:26.329Z,10.20
2023-02-23T01:24:26.320Z,9.50
2023-02-23T01:25:26.308Z,9.80
2023-02-23T01:26:26.292Z,9.00
2023-02-23T01:27:26.288Z,10.10
2023-02-23T01:28:26.282Z,10.10
2023-02-23T01:29:26.264Z,10.30
2023-02-23T01:30:26.300Z,10.50
2023-02-23T01:31:26.391Z,9.80
2023-02-23T01:32:26.286Z,11.50
2023-02-23T01:33:26.241Z,9.40
2023-02-23T01:34:26.222Z,10.70
2023-02-23T01:35:26.207Z,10.80
2023-02-23T01:36:26.203Z,10.20
2023-02-23T01:37:26.183Z,10.00
2023-02-23T01:38:26.169Z,10.60
2023-02-23T01:39:26.146Z,10.00
2023-02-23T01:40:26.137Z,9.70
2023-02-23T01:41:26.155Z,10.20
2023-02-23T01:42:26.129Z,10.90
2023-02-23T01:43:26.217Z,11.00
2023-02-23T01:44:26.108Z,11.40
2023-02-23T01:45:26.111Z,10.70
2023-02-23T01:46:26.092Z,10.60
2023-02-23T01:47:26.100Z,9.80
2023-02-23T01:48:26.052Z,9.20
2023-02-23T01:49:26.109Z,9.30
2023-02-23T01:50:26.045Z,10.50
2023-02-23T01:51:26.042Z,10.90
2023-02-23T01:52:26.010Z,9.50
2023-02-23T01:53:25.999Z,10.20
2023-02-23T01:54:26.007Z,10.10
2023-02-23T01:55:25.984Z,10.10
2023-02-23T01:56:25.991Z,10.90
2023-02-23T01:57:25.961Z,9.70
2023-02-23T01:58:25.965Z,9.50
2023-02-23T01:59:25.953Z,9.70
2023-02-23T02:00:25.952Z,10.40
2023-02-23T02:01:25.969Z,9.20
2023-02-23T02:02:25.938Z,9.90
2023-02-23T02:03:25.946Z,10.40
2023-02-23T02:04:25.897Z,10.30
2023-02-23T02:05:25.919Z,10.30
2023-02-23T02:06:25.863Z,9.70
2023-02-23T02:07:25.894Z,10.30
2023-02-23T02:08:25.828Z,10.20
2023-02-23T02:09:25.826Z,10.10
2023-02-23T02:10:25.837Z,9.90
2023-02-23T02:11:26.012Z,8.80
2023-02-23T02:12:25.824Z,9.30
2023-02-23T02:13:25.799Z,9.00
2023-02-23T02:14:25.762Z,9.00
2023-02-23T02:15:25.765Z,10.20
2023-02-23T02:16:25.777Z,8.90
2023-02-23T02:17:25.742Z,9.90
2023-02-23T02:18:25.731Z,9.60
2023-02-23T02:19:25.733Z,9.70
2023-02-23T02:20:25.697Z,9.20
2023-02-23T02:21:25.693Z,10.10
2023-02-23T02:22:25.703Z,9.50
2023-02-23T02:23:25.686Z,7.90
2023-02-23T02:24:25.680Z,7.00
2023-02-23T02:25:25.663Z,7.40
2023-02-23T02:26:25.678Z,6.90
2023-02-23T02:27:25.642Z,6.60
2023-02-23T02:28:25.630Z,6.30
2023-02-23T02:29:25.616Z,9.80
2023-02-23T02:30:25.656Z,9.00
2023-02-23T02:31:25.656Z,8.90
2023-02-23T02:32:25.643Z,9.70
2023-02-23T02:33:25.573Z,9.20
2023-02-23T02:34:25.567Z,10.10
2023-02-23T02:35:25.583Z,9.40
2023-02-23T02:38:36.551Z,9.40
2023-02-23T02:39:36.597Z,9.40
2023-02-23T02:40:36.528Z,11.30
2023-02-23T02:41:36.525Z,10.70
2023-02-23T02:42:36.516Z,11.10
2023-02-23T02:43:36.487Z,10.90
2023-02-23T02:44:36.507Z,10.60
2023-02-23T02:45:36.492Z,10.80
2023-02-23T02:46:44.244Z,10.50
2023-02-23T02:47:36.442Z,10.40
2023-02-23T02:48:36.452Z,9.80
2023-02-23T02:49:36.435Z,8.00
2023-02-23T02:50:36.480Z,8.30
2023-02-23T02:51:36.418Z,10.50
2023-02-23T02:52:36.407Z,10.70
2023-02-23T02:53:36.409Z,10.30
2023-02-23T02:54:36.372Z,11.60
2023-02-23T02:55:36.373Z,11.20
2023-02-23T02:56:36.349Z,10.50
2023-02-23T02:57:36.358Z,10.80
2023-02-23T02:58:36.325Z,12.10
2023-02-23T02:59:36.337Z,11.30
2023-02-23T03:00:36.316Z,9.20
2023-02-23T03:01:36.329Z,10.30
2023-02-23T03:02:36.283Z,8.60
2023-02-23T03:03:36.273Z,12.10
2023-02-23T03:04:36.258Z,11.90
2023-02-23T03:05:36.271Z,11.90
2023-02-23T03:06:36.274Z,11.00
2023-02-23T03:07:36.229Z,11.80
2023-02-23T03:08:36.237Z,11.90
2023-02-23T03:09:36.209Z,11.50
2023-02-23T03:10:36.192Z,11.90
2023-02-23T03:11:36.214Z,12.80
2023-02-23T03:12:36.184Z,12.60
2023-02-23T03:13:36.171Z,12.70
2023-02-23T03:14:36.162Z,8.90
2023-02-23T03:15:36.154Z,10.70
2023-02-23T03:16:36.156Z,10.40
2023-02-23T03:17:38.396Z,10.30
2023-02-23T03:18:36.117Z,12.30
2023-02-23T03:19:36.097Z,12.20
2023-02-23T03:20:36.080Z,13.20
2023-02-23T03:21:36.089Z,12.30
2023-02-23T03:22:36.102Z,12.20
2023-02-23T03:23:36.067Z,11.80
2023-02-23T03:24:36.036Z,13.00
2023-02-23T03:25:36.038Z,12.20
2023-02-23T03:26:36.033Z,12.60
2023-02-23T03:27:36.022Z,13.80
2023-02-23T03:28:36.006Z,12.30
2023-02-23T03:29:36.012Z,13.40
2023-02-23T03:30:36.037Z,12.70
2023-02-23T03:31:36.122Z,12.90
2023-02-23T03:32:36.013Z,12.90
2023-02-23T03:33:35.957Z,12.90
2023-02-23T03:34:35.944Z,12.80
2023-02-23T03:35:35.913Z,11.70
2023-02-23T03:36:35.915Z,13.40
2023-02-23T03:37:35.894Z,12.20
2023-02-23T03:38:35.924Z,12.20
2023-02-23T03:39:35.889Z,13.60
2023-02-23T03:40:35.873Z,14.10
2023-02-23T03:41:35.850Z,12.70
2023-02-23T03:42:35.863Z,13.40
2023-02-23T03:43:35.841Z,13.60
2023-02-23T03:44:35.841Z,13.80
2023-02-23T03:45:35.864Z,13.40
2023-02-23T03:46:35.821Z,11.80
2023-02-23T03:47:35.826Z,12.80
2023-02-23T03:48:35.787Z,13.30
2023-02-23T03:49:35.759Z,14.40
2023-02-23T03:50:35.764Z,12.80
2023-02-23T03:51:35.759Z,12.60
2023-02-23T03:52:35.747Z,13.50
2023-02-23T03:53:35.724Z,13.80
2023-02-23T03:54:35.744Z,13.00
2023-02-23T03:55:35.709Z,13.50
2023-02-23T03:56:35.723Z,11.40
2023-02-23T03:57:35.671Z,11.70
2023-02-23T03:58:35.674Z,12.30
2023-02-23T03:59:35.705Z,13.60
2023-02-23T04:00:35.640Z,13.00
2023-02-23T04:01:35.645Z,13.00
2023-02-23T04:02:35.632Z,12.80
2023-02-23T04:03:35.700Z,14.00
2023-02-23T04:04:35.602Z,13.10
2023-02-23T04:05:35.587Z,13.20
2023-02-23T04:06:35.565Z,13.80
2023-02-23T04:07:35.560Z,11.50
2023-02-23T04:08:35.562Z,13.40
2023-02-23T04:09:35.543Z,13.40
2023-02-23T04:10:35.610Z,13.30
2023-02-23T04:11:35.522Z,12.00
2023-02-23T04:12:35.498Z,13.50
2023-02-23T04:13:35.508Z,14.00
2023-02-23T04:14:35.492Z,12.90
2023-02-23T04:15:35.468Z,12.90
2023-02-23T04:16:35.489Z,12.50
2023-02-23T04:17:35.505Z,14.10
2023-02-23T04:18:35.459Z,13.10
2023-02-23T04:19:35.442Z,12.80
2023-02-23T04:20:35.482Z,13.20
2023-02-23T04:21:35.416Z,13.60
2023-02-23T04:22:35.413Z,13.90
2023-02-23T04:23:35.400Z,12.50
2023-02-23T04:24:35.373Z,13.40
2023-02-23T04:25:35.378Z,12.80
2023-02-23T04:26:35.456Z,14.00
2023-02-23T04:27:35.346Z,12.40
2023-02-23T04:28:35.342Z,13.60
2023-02-23T04:29:35.337Z,13.70
2023-02-23T04:30:35.347Z,12.80
2023-02-23T04:31:35.476Z,14.00
2023-02-23T04:32:35.447Z,12.60
2023-02-23T04:33:35.286Z,12.00
2023-02-23T04:34:35.274Z,13.60
2023-02-23T04:35:35.249Z,12.10
2023-02-23T04:36:35.236Z,12.90
2023-02-23T04:37:35.244Z,13.10
2023-02-23T04:38:35.215Z,13.70
2023-02-23T04:39:35.207Z,12.50
2023-02-23T04:40:35.218Z,13.00
2023-02-23T04:41:35.177Z,12.50
2023-02-23T04:42:35.213Z,12.80
2023-02-23T04:43:35.175Z,11.70
2023-02-23T04:44:35.158Z,13.40
2023-02-23T04:45:35.133Z,12.60
2023-02-23T04:46:35.160Z,13.00
2023-02-23T04:47:35.113Z,13.50
2023-02-23T04:48:35.115Z,13.10
2023-02-23T04:49:35.089Z,12.00
2023-02-23T04:50:35.095Z,11.80
2023-02-23T04:51:35.086Z,12.80
2023-02-23T04:52:35.101Z,12.60
2023-02-23T04:53:35.050Z,12.40
2023-02-23T04:54:35.055Z,11.80
2023-02-23T04:55:35.032Z,11.60
2023-02-23T04:56:35.030Z,12.50
2023-02-23T04:57:35.015Z,12.80
2023-02-23T04:58:35.021Z,12.40
2023-02-23T04:59:34.983Z,12.30
2023-02-23T05:00:35.008Z,11.70
2023-02-23T05:01:35.038Z,11.70
2023-02-23T05:02:34.965Z,11.90
2023-02-23T05:03:34.951Z,10.50
2023-02-23T05:04:34.971Z,11.20
2023-02-23T05:05:34.925Z,12.30
2023-02-23T05:06:34.922Z,12.20
2023-02-23T05:07:34.907Z,12.70
2023-02-23T05:08:34.895Z,13.20
2023-02-23T05:09:34.889Z,13.10
2023-02-23T05:10:34.870Z,13.80
2023-02-23T05:11:34.849Z,13.10
2023-02-23T05:12:34.834Z,13.80
2023-02-23T05:13:34.853Z,13.70
2023-02-23T05:14:34.852Z,14.80
2023-02-23T05:15:34.847Z,14.20
2023-02-23T05:16:34.804Z,14.70
2023-02-23T05:17:34.795Z,14.70
2023-02-23T05:18:34.785Z,17.10
2023-02-23T05:19:34.776Z,16.10
2023-02-23T05:20:34.764Z,16.30
2023-02-23T05:21:34.742Z,16.70
2023-02-23T05:22:34.740Z,15.40
2023-02-23T05:23:34.773Z,17.60
2023-02-23T05:24:34.704Z,17.20
2023-02-23T05:25:34.704Z,17.40
2023-02-23T05:26:34.678Z,17.90
2023-02-23T05:27:34.671Z,17.40
2023-02-23T05:28:34.682Z,17.30
2023-02-23T05:29:34.645Z,17.30
2023-02-23T05:30:34.765Z,17.80
2023-02-23T05:31:34.788Z,19.90
2023-02-23T05:32:34.773Z,21.10
2023-02-23T05:33:34.613Z,21.10
2023-02-23T05:34:34.594Z,21.50
2023-02-23T05:35:34.582Z,20.70
2023-02-23T05:36:34.580Z,21.80
2023-02-23T05:37:34.571Z,20.40
2023-02-23T05:38:34.563Z,20.70
2023-02-23T05:39:34.592Z,20.60
2023-02-23T05:40:34.539Z,20.70
2023-02-23T05:41:34.521Z,21.20
2023-02-23T05:42:34.513Z,21.80
2023-02-23T05:43:34.503Z,21.20
2023-02-23T05:44:34.494Z,21.10
2023-02-23T05:45:34.483Z,20.90
2023-02-23T05:46:34.511Z,20.80
2023-02-23T05:47:34.439Z,20.50
2023-02-23T05:48:34.448Z,22.10
2023-02-23T05:49:34.422Z,20.40
2023-02-23T05:50:34.410Z,22.20
2023-02-23T05:51:34.409Z,20.20
2023-02-23T05:52:34.383Z,21.40
2023-02-23T05:53:34.382Z,21.20
2023-02-23T05:54:34.369Z,20.60
2023-02-23T05:55:34.351Z,21.50
2023-02-23T05:56:34.370Z,20.50
2023-02-23T05:57:34.328Z,20.60
2023-02-23T05:58:34.319Z,21.40
2023-02-23T05:59:34.324Z,20.50
2023-02-23T06:00:34.303Z,20.70
2023-02-23T06:01:34.341Z,20.20
2023-02-23T06:02:34.403Z,19.50
2023-02-23T06:03:34.445Z,20.30
2023-02-23T06:04:34.273Z,21.20
2023-02-23T06:05:34.332Z,20.10
2023-02-23T06:06:34.278Z,18.40
2023-02-23T06:07:34.236Z,19.00
2023-02-23T06:08:34.229Z,19.80
2023-02-23T06:09:34.257Z,20.30
2023-02-23T06:10:34.244Z,18.70
2023-02-23T06:11:34.212Z,19.30
2023-02-23T06:12:34.221Z,19.30
2023-02-23T06:13:34.188Z,19.50
2023-02-23T06:14:34.181Z,20.20
2023-02-23T06:15:34.148Z,20.00
2023-02-23T06:16:34.291Z,20.00
2023-02-23T06:17:34.134Z,19.60
2023-02-23T06:18:34.225Z,20.00
2023-02-23T06:19:34.108Z,19.20
2023-02-23T06:20:34.099Z,19.20
2023-02-23T06:21:34.084Z,19.80
2023-02-23T06:22:34.095Z,19.50
2023-02-23T06:23:34.068Z,19.80
2023-02-23T06:24:34.074Z,19.90
2023-02-23T06:25:34.026Z,17.90
2023-02-23T06:26:34.066Z,18.00
2023-02-23T06:27:34.038Z,18.20
2023-02-23T06:28:41.822Z,19.10
2023-02-23T06:29:33.990Z,18.70
2023-02-23T06:30:34.031Z,18.30
2023-02-23T06:31:34.113Z,18.20
2023-02-23T06:32:33.999Z,18.20
2023-02-23T06:33:33.966Z,19.10
2023-02-23T06:34:33.961Z,18.70
2023-02-23T06:35:33.932Z,18.20
2023-02-23T06:36:33.957Z,17.90
2023-02-23T06:37:33.911Z,18.40
2023-02-23T06:38:33.892Z,17.90
2023-02-23T06:39:33.894Z,17.30
2023-02-23T06:40:33.855Z,17.90
2023-02-23T06:41:33.848Z,18.70
2023-02-23T06:42:33.846Z,17.10
2023-02-23T06:43:33.846Z,17.60
2023-02-23T06:44:33.853Z,18.20
2023-02-23T06:45:33.826Z,18.60
2023-02-23T06:46:33.875Z,18.30
2023-02-23T06:47:33.802Z,18.90
2023-02-23T06:48:33.782Z,17.40
2023-02-23T06:49:33.783Z,17.80
2023-02-23T06:50:33.790Z,17.60
2023-02-23T06:51:33.773Z,19.60
2023-02-23T06:52:33.744Z,17.60
2023-02-23T06:53:33.745Z,17.40
2023-02-23T06:54:33.730Z,17.50
2023-02-23T06:55:33.712Z,16.70
2023-02-23T06:56:33.750Z,18.20
2023-02-23T06:57:33.713Z,17.20
2023-02-23T06:58:33.666Z,16.20
2023-02-23T06:59:33.655Z,16.90
2023-02-23T07:00:33.646Z,16.80
2023-02-23T07:01:33.668Z,16.40
2023-02-23T07:02:33.663Z,17.60
2023-02-23T07:03:33.633Z,15.40
2023-02-23T07:04:33.605Z,16.40
2023-02-23T07:05:33.609Z,17.30
2023-02-23T07:06:33.612Z,15.90
2023-02-23T07:07:33.601Z,16.50
2023-02-23T07:08:33.563Z,15.50
2023-02-23T07:09:33.556Z,16.40
2023-02-23T07:10:33.575Z,16.20
2023-02-23T07:11:33.541Z,15.80
2023-02-23T07:12:33.544Z,15.90
2023-02-23T07:13:33.490Z,15.80
2023-02-23T07:14:33.540Z,15.80
2023-02-23T07:15:33.504Z,15.40
2023-02-23T07:16:33.499Z,15.50
2023-02-23T07:17:33.439Z,15.00
2023-02-23T07:18:33.449Z,16.00
2023-02-23T07:19:33.503Z,15.20
2023-02-23T07:20:33.423Z,15.80
2023-02-23T07:21:33.495Z,16.40
2023-02-23T07:22:33.442Z,16.30
2023-02-23T07:23:33.465Z,15.50
2023-02-23T07:24:33.396Z,16.20
2023-02-23T07:25:33.494Z,16.40
2023-02-23T07:26:33.363Z,15.50
2023-02-23T07:27:34.135Z,14.70
2023-02-23T07:28:33.336Z,15.60
2023-02-23T07:29:33.335Z,15.50
2023-02-23T07:30:33.351Z,15.60
2023-02-23T07:31:33.357Z,15.20
2023-02-23T07:32:33.509Z,16.10
2023-02-23T07:33:33.274Z,15.40
2023-02-23T07:34:33.281Z,16.20
2023-02-23T07:35:33.276Z,15.70
2023-02-23T07:36:33.267Z,14.90
2023-02-23T07:37:33.241Z,15.30
2023-02-23T07:38:33.239Z,15.20
2023-02-23T07:39:33.223Z,15.90
2023-02-23T07:40:33.207Z,15.30
2023-02-23T07:41:33.192Z,15.40
2023-02-23T07:42:33.184Z,14.20
2023-02-23T07:43:33.186Z,15.40
2023-02-23T07:44:33.217Z,15.60
2023-02-23T07:45:33.268Z,15.20
2023-02-23T07:46:33.156Z,14.20
2023-02-23T07:47:33.289Z,15.20
2023-02-23T07:48:33.120Z,14.40
2023-02-23T07:49:33.106Z,14.10
2023-02-23T07:50:33.083Z,15.40
2023-02-23T07:51:33.109Z,14.70
2023-02-23T07:52:33.068Z,14.50
2023-02-23T07:53:33.061Z,14.80
2023-02-23T07:54:33.074Z,15.10
2023-02-23T07:55:33.032Z,14.60
2023-02-23T07:56:33.031Z,15.20
2023-02-23T07:57:33.045Z,16.20
2023-02-23T07:58:33.012Z,13.90
2023-02-23T07:59:33.014Z,13.20
2023-02-23T08:00:32.967Z,14.60
2023-02-23T08:01:33.026Z,14.20
2023-02-23T08:02:32.990Z,13.90
2023-02-23T08:03:32.949Z,13.30
2023-02-23T08:04:32.992Z,12.80
2023-02-23T08:05:32.944Z,13.50
2023-02-23T08:06:32.924Z,13.40
2023-02-23T08:07:32.928Z,13.10
2023-02-23T08:08:32.889Z,13.10
2023-02-23T08:09:32.888Z,12.80
2023-02-23T08:10:32.906Z,13.30
2023-02-23T08:11:32.864Z,12.80
2023-02-23T08:12:32.890Z,13.60
2023-02-23T08:13:32.885Z,14.00
2023-02-23T08:14:32.825Z,13.40
2023-02-23T08:15:32.826Z,12.80
2023-02-23T08:16:32.872Z,14.90
2023-02-23T08:17:32.804Z,13.20
2023-02-23T08:18:32.954Z,12.50
2023-02-23T08:19:32.800Z,12.20
2023-02-23T08:20:32.762Z,12.60
2023-02-23T08:21:32.745Z,12.90
2023-02-23T08:22:47.151Z,13.10
2023-02-23T08:23:33.735Z,12.20
2023-02-23T08:24:32.714Z,12.20
2023-02-23T08:25:32.774Z,12.90
2023-02-23T08:26:33.860Z,13.70
2023-02-23T08:27:32.708Z,14.00
2023-02-23T08:28:32.667Z,12.40
2023-02-23T08:29:32.673Z,13.10
2023-02-23T08:30:32.813Z,11.40
2023-02-23T08:31:32.871Z,12.30
2023-02-23T08:32:32.769Z,11.90
2023-02-23T08:33:32.633Z,11.90
2023-02-23T08:34:32.605Z,12.40
2023-02-23T08:35:32.595Z,13.30
2023-02-23T08:36:32.724Z,12.20
2023-02-23T08:37:32.650Z,12.50
2023-02-23T08:38:32.584Z,13.50
2023-02-23T08:39:32.549Z,12.20
2023-02-23T08:40:32.533Z,12.80
2023-02-23T08:41:32.535Z,12.60
2023-02-23T08:42:32.692Z,11.90
2023-02-23T08:43:32.501Z,12.70
2023-02-23T08:44:32.490Z,11.50
2023-02-23T08:45:32.738Z,11.70
2023-02-23T08:46:32.500Z,11.60
2023-02-23T08:47:32.458Z,12.20
2023-02-23T08:48:32.462Z,11.70
2023-02-23T08:49:32.435Z,11.50
2023-02-23T08:50:32.556Z,12.00
2023-02-23T08:51:32.537Z,12.00
2023-02-23T08:52:32.406Z,11.90
2023-02-23T08:53:32.398Z,12.40
2023-02-23T08:54:32.453Z,12.30
2023-02-23T08:55:32.381Z,11.60
2023-02-23T08:56:32.351Z,11.40
2023-02-23T08:57:32.356Z,11.30
2023-02-23T08:58:32.337Z,11.80
2023-02-23T08:59:32.393Z,11.80
2023-02-23T09:00:32.342Z,12.60
2023-02-23T09:01:32.372Z,11.50
2023-02-23T09:02:32.328Z,13.30
2023-02-23T09:03:32.279Z,12.00
2023-02-23T09:04:32.258Z,12.40
2023-02-23T09:05:32.314Z,11.70
2023-02-23T09:06:32.270Z,13.30
2023-02-23T09:07:32.333Z,11.80
2023-02-23T09:08:32.262Z,12.10
2023-02-23T09:09:32.190Z,13.40
2023-02-23T09:10:32.205Z,12.10
2023-02-23T09:11:32.297Z,11.80
2023-02-23T09:12:32.176Z,12.50
2023-02-23T09:13:32.167Z,12.90
2023-02-23T09:14:32.764Z,12.80
2023-02-23T09:15:32.133Z,13.40
2023-02-23T09:16:32.131Z,12.30
2023-02-23T09:17:32.157Z,13.10
2023-02-23T09:18:32.124Z,13.20
2023-02-23T09:19:32.095Z,14.00
2023-02-23T09:20:32.087Z,12.90
2023-02-23T09:21:32.105Z,12.80
2023-02-23T09:22:32.046Z,14.20
2023-02-23T09:23:32.073Z,12.70
2023-02-23T09:24:32.041Z,12.90
2023-02-23T09:25:32.034Z,13.40
2023-02-23T09:26:32.007Z,11.80
2023-02-23T09:27:32.012Z,13.10
2023-02-23T09:28:32.075Z,13.30
2023-02-23T09:29:31.985Z,12.00
2023-02-23T09:30:32.036Z,13.80
2023-02-23T09:31:31.980Z,12.70
2023-02-23T09:32:32.080Z,13.20
2023-02-23T09:33:31.948Z,12.90
2023-02-23T09:34:31.915Z,13.10
2023-02-23T09:35:31.896Z,13.40
2023-02-23T09:36:31.885Z,12.90
2023-02-23T09:37:32.645Z,13.00
2023-02-23T09:38:31.875Z,12.70
2023-02-23T09:39:38.021Z,13.20
2023-02-23T09:40:32.927Z,12.90
2023-02-23T09:41:31.825Z,11.90
2023-02-23T09:42:31.867Z,13.00
2023-02-23T09:43:31.840Z,13.10
2023-02-23T09:44:31.807Z,12.50
2023-02-23T09:45:31.780Z,13.40
2023-02-23T09:46:31.844Z,13.00
2023-02-23T09:47:31.794Z,13.40
2023-02-23T09:48:31.760Z,13.30
2023-02-23T09:49:31.755Z,13.90
2023-02-23T09:50:31.750Z,12.70
2023-02-23T09:51:31.736Z,13.80
2023-02-23T09:52:31.753Z,13.70
2023-02-23T09:53:33.851Z,13.20
2023-02-23T09:54:31.690Z,12.50
2023-02-23T09:55:31.720Z,12.90
2023-02-23T09:56:31.691Z,13.80
2023-02-23T09:57:31.657Z,13.20
2023-02-23T09:58:31.654Z,13.20
2023-02-23T09:59:31.621Z,12.40
2023-02-23T10:00:31.623Z,12.20
2023-02-23T10:01:31.889Z,11.50
2023-02-23T10:02:31.720Z,12.00
2023-02-23T10:03:31.593Z,11.80
2023-02-23T10:04:31.681Z,11.60
2023-02-23T10:05:31.552Z,12.30
2023-02-23T10:06:31.583Z,13.20
2023-02-23T10:07:31.559Z,12.50
2023-02-23T10:08:32.145Z,13.50
2023-02-23T10:09:31.576Z,13.60
2023-02-23T10:10:31.559Z,13.00
2023-02-23T10:11:31.509Z,13.80
2023-02-23T10:12:31.509Z,12.10
2023-02-23T10:13:31.485Z,13.30
2023-02-23T10:14:31.478Z,12.20
2023-02-23T10:15:31.510Z,11.50
2023-02-23T10:16:31.448Z,12.30
2023-02-23T10:17:31.436Z,12.00
2023-02-23T10:18:45.779Z,11.40
2023-02-23T10:19:32.421Z,12.70
2023-02-23T10:20:31.433Z,12.00
2023-02-23T10:21:31.413Z,12.70
2023-02-23T10:22:31.391Z,12.80
2023-02-23T10:23:31.581Z,12.30
2023-02-23T10:24:31.432Z,12.00
2023-02-23T10:25:31.352Z,11.30
2023-02-23T10:26:31.331Z,12.70
2023-02-23T10:27:31.325Z,12.30
2023-02-23T10:28:32.212Z,11.60
2023-02-23T10:29:32.660Z,12.80
2023-02-23T10:30:31.386Z,11.60
2023-02-23T10:31:31.437Z,12.80
2023-02-23T10:32:31.307Z,11.70
2023-02-23T10:33:31.345Z,11.50
2023-02-23T10:34:31.253Z,11.90
2023-02-23T10:35:31.224Z,11.70
2023-02-23T10:36:31.208Z,11.50
2023-02-23T10:37:31.626Z,11.50
2023-02-23T10:38:31.210Z,10.50
2023-02-23T10:39:31.183Z,10.90
2023-02-23T10:40:31.171Z,11.60
2023-02-23T10:41:32.162Z,10.70
2023-02-23T10:42:31.146Z,11.10
2023-02-23T10:43:32.155Z,10.80
2023-02-23T10:44:31.105Z,10.80
2023-02-23T10:45:31.106Z,10.20
2023-02-23T10:46:31.185Z,10.90
2023-02-23T10:47:31.143Z,11.60
2023-02-23T10:48:31.098Z,10.30
2023-02-23T10:49:31.124Z,10.20
2023-02-23T10:50:31.098Z,10.10
2023-02-23T10:51:31.134Z,10.40
2023-02-23T10:52:32.596Z,10.10
2023-02-23T10:53:31.068Z,10.10
2023-02-23T10:54:31.005Z,10.10
2023-02-23T10:55:31.061Z,9.30
2023-02-23T10:56:30.987Z,9.00
2023-02-23T10:57:31.022Z,10.10
2023-02-23T10:58:31.047Z,10.20
2023-02-23T10:59:30.971Z,10.20
2023-02-23T11:00:30.956Z,10.10
2023-02-23T11:01:30.960Z,8.70
2023-02-23T11:02:31.066Z,9.20
2023-02-23T11:03:30.925Z,9.10
2023-02-23T11:04:30.993Z,9.60
2023-02-23T11:05:30.906Z,10.00
2023-02-23T11:06:30.906Z,9.80
2023-02-23T11:07:30.857Z,8.90
2023-02-23T11:08:31.646Z,10.00
2023-02-23T11:09:45.090Z,9.10
2023-02-23T11:10:31.830Z,9.80
2023-02-23T11:11:30.851Z,8.90
2023-02-23T11:12:30.847Z,9.50
2023-02-23T11:13:30.806Z,9.60
2023-02-23T11:14:30.825Z,9.60
2023-02-23T11:15:48.193Z,8.50
2023-02-23T11:16:31.812Z,9.30
2023-02-23T11:17:30.784Z,9.10
2023-02-23T11:18:30.810Z,8.80
2023-02-23T11:19:30.749Z,9.10
2023-02-23T11:20:30.710Z,8.70
2023-02-23T11:21:30.704Z,9.20
2023-02-23T11:22:30.744Z,8.00
2023-02-23T11:23:30.667Z,8.70
2023-02-23T11:24:30.664Z,9.30
2023-02-23T11:25:30.677Z,9.60
2023-02-23T11:26:30.671Z,8.70
2023-02-23T11:27:30.619Z,8.90
2023-02-23T11:28:30.631Z,7.90
2023-02-23T11:29:30.635Z,8.60
2023-02-23T11:30:30.633Z,9.20
2023-02-23T11:31:30.612Z,8.70
2023-02-23T11:32:30.731Z,8.90
2023-02-23T11:33:30.572Z,9.40
2023-02-23T11:34:30.535Z,9.10
2023-02-23T11:35:30.564Z,8.70
2023-02-23T11:36:30.538Z,8.60
2023-02-23T11:37:30.539Z,8.70
2023-02-23T11:38:30.548Z,9.30
2023-02-23T11:39:30.477Z,9.00
2023-02-23T11:40:30.464Z,8.30
2023-02-23T11:41:30.476Z,8.80
2023-02-23T11:42:30.452Z,8.70
2023-02-23T11:43:30.520Z,8.30
2023-02-23T11:44:30.452Z,8.30
2023-02-23T11:45:30.406Z,8.40
2023-02-23T11:46:30.538Z,8.30
2023-02-23T11:47:30.416Z,8.70
2023-02-23T11:48:30.409Z,9.20
2023-02-23T11:49:30.403Z,8.40
2023-02-23T11:50:30.383Z,8.40
2023-02-23T11:51:30.361Z,7.90
2023-02-23T11:52:30.367Z,8.20
2023-02-23T11:53:30.312Z,7.40
2023-02-23T11:54:30.492Z,8.60
2023-02-23T11:55:30.318Z,7.20
2023-02-23T11:56:30.337Z,8.10
2023-02-23T11:57:30.281Z,8.10
2023-02-23T11:58:30.271Z,7.50
2023-02-23T11:59:30.294Z,8.20
2023-02-23T12:00:30.269Z,8.30
2023-02-23T12:01:30.252Z,7.60
2023-02-23T12:02:31.192Z,8.20
2023-02-23T12:03:30.216Z,7.90
2023-02-23T12:04:30.252Z,8.70
2023-02-23T12:05:30.202Z,8.00
2023-02-23T12:06:30.449Z,7.60
2023-02-23T12:07:31.139Z,7.50
2023-02-23T12:08:30.298Z,7.80
2023-02-23T12:09:30.148Z,8.00
2023-02-23T12:10:30.257Z,7.60
2023-02-23T12:11:30.132Z,8.00
2023-02-23T12:12:30.140Z,7.00
2023-02-23T12:13:30.137Z,7.40
2023-02-23T12:14:30.080Z,7.50
2023-02-23T12:15:30.115Z,8.30
2023-02-23T12:16:30.094Z,8.20
2023-02-23T12:17:30.168Z,7.70
2023-02-23T12:18:30.050Z,7.00
2023-02-23T12:19:30.035Z,8.00
2023-02-23T12:20:30.056Z,8.00
2023-02-23T12:21:30.078Z,7.80
2023-02-23T12:22:30.029Z,7.20
2023-02-23T12:23:30.008Z,7.10
2023-02-23T12:24:29.970Z,6.80
2023-02-23T12:25:30.715Z,7.60
2023-02-23T12:26:30.012Z,7.40
2023-02-23T12:27:29.989Z,7.80
2023-02-23T12:28:29.961Z,7.50
2023-02-23T12:29:29.929Z,7.00
2023-02-23T12:30:29.968Z,8.30
2023-02-23T12:31:30.009Z,7.30
2023-02-23T12:32:29.932Z,7.20
2023-02-23T12:33:29.874Z,7.00
2023-02-23T12:34:29.850Z,7.00
2023-02-23T12:35:31.198Z,7.00
2023-02-23T12:36:29.839Z,7.60
2023-02-23T12:37:29.844Z,7.10
2023-02-23T12:38:29.824Z,6.90
2023-02-23T12:39:29.820Z,7.70
2023-02-23T12:40:29.801Z,7.60
2023-02-23T12:41:29.783Z,7.90
2023-02-23T12:42:29.790Z,7.40
2023-02-23T12:43:29.836Z,7.70
2023-02-23T12:44:29.756Z,7.90
2023-02-23T12:45:29.741Z,7.00
2023-02-23T12:46:29.823Z,8.00
2023-02-23T12:47:29.715Z,7.40
2023-02-23T12:48:29.750Z,7.30
2023-02-23T12:49:29.693Z,7.90
2023-02-23T12:50:29.682Z,7.70
2023-02-23T12:51:29.675Z,7.60
2023-02-23T12:52:29.690Z,7.50
2023-02-23T12:53:29.683Z,8.30
2023-02-23T12:54:29.666Z,7.80
2023-02-23T12:55:29.622Z,7.60
2023-02-23T12:56:29.644Z,8.50
2023-02-23T12:57:29.597Z,8.10
2023-02-23T12:58:29.725Z,7.60
2023-02-23T12:59:32.041Z,7.50
2023-02-23T13:00:29.571Z,8.00
2023-02-23T13:01:29.724Z,7.60